createdAt,value
2023-03-20T00:00:41.402Z,63.82
2023-03-20T00:03:24.100Z,63.73
2023-03-20T00:06:02.603Z,64.43
2023-03-20T00:08:46.287Z,65.33
2023-03-20T00:11:39.453Z,65.84
2023-03-20T00:14:24.699Z,66.49
2023-03-20T00:17:16.186Z,68.65
2023-03-20T00:19:51.531Z,68.31
2023-03-20T00:22:43.028Z,69.29
2023-03-20T00:25:38.017Z,68.64
2023-03-20T00:28:39.053Z,69.79
2023-03-20T00:31:36.729Z,70.13
2023-03-20T00:34:14.946Z,69.77
2023-03-20T00:37:05.664Z,70.02
2023-03-20T00:39:51.744Z,70.66
2023-03-20T00:42:34.986Z,71.34
2023-03-20T00:45:27.702Z,71.87
2023-03-20T00:48:16.270Z,71.35
2023-03-20T00:50:56.054Z,71.31
2023-03-20T00:53:40.254Z,72.98
2023-03-20T00:56:37.178Z,72.98
2023-03-20T00:59:21.028Z,73.48
2023-03-20T01:01:58.753Z,73.48
2023-03-20T01:04:51.458Z,73.42
2023-03-20T01:07:33.512Z,74.60
2023-03-20T01:10:20.118Z,75.75
2023-03-20T01:13:00.601Z,75.80
2023-03-20T01:15:44.526Z,76.29
2023-03-20T01:18:30.619Z,75.85
2023-03-20T01:21:08.304Z,76.17
2023-03-20T01:23:51.001Z,75.97
2023-03-20T01:26:43.365Z,76.41
2023-03-20T01:29:35.385Z,76.68
2023-03-20T01:32:15.561Z,79.19
2023-03-20T01:34:54.884Z,79.79
2023-03-20T01:37:33.384Z,80.40
2023-03-20T01:40:39.998Z,79.20
2023-03-20T01:43:27.790Z,79.44
2023-03-20T01:46:17.731Z,79.10
2023-03-20T01:49:05.591Z,79.77
2023-03-20T01:51:48.940Z,78.90
2023-03-20T01:54:35.019Z,79.27
2023-03-20T01:57:30.166Z,78.54
2023-03-20T02:00:13.044Z,78.07
2023-03-20T02:02:58.617Z,78.94
2023-03-20T02:06:02.903Z,78.51
2023-03-20T02:09:15.433Z,79.19
2023-03-20T02:12:05.936Z,79.05
2023-03-20T02:14:49.288Z,79.61
2023-03-20T02:17:42.686Z,80.91
2023-03-20T02:20:41.590Z,82.58
2023-03-20T02:24:14.493Z,81.93
2023-03-20T02:27:18.292Z,83.00
2023-03-20T02:30:16.784Z,84.85
2023-03-20T02:33:24.724Z,86.28
2023-03-20T02:36:30.702Z,86.44
2023-03-20T02:40:16.378Z,86.30
2023-03-20T02:43:04.826Z,85.36
2023-03-20T02:46:02.354Z,86.05
2023-03-20T02:48:46.080Z,87.00
2023-03-20T02:51:46.926Z,85.95
2023-03-20T02:54:37.572Z,86.00
2023-03-20T02:57:38.699Z,86.51
2023-03-20T03:00:56.565Z,86.40
2023-03-20T03:03:44.137Z,89.23
2023-03-20T03:06:30.066Z,88.97
2023-03-20T03:09:17.230Z,88.45
2023-03-20T03:12:04.559Z,87.82
2023-03-20T03:14:50.033Z,87.18
2023-03-20T03:17:35.666Z,87.65
2023-03-20T03:20:24.729Z,88.38
2023-03-20T03:23:11.519Z,88.85
2023-03-20T03:25:51.945Z,91.42
2023-03-20T03:28:52.894Z,90.16
2023-03-20T03:31:38.341Z,90.27
2023-03-20T03:34:25.330Z,89.59
2023-03-20T03:37:53.897Z,89.70
2023-03-20T03:40:58.400Z,89.66
2023-03-20T03:43:34.565Z,89.42
2023-03-20T03:46:24.991Z,89.47
2023-03-20T03:49:12.038Z,89.92
2023-03-20T03:52:12.977Z,90.61
2023-03-20T03:54:59.455Z,91.01
2023-03-20T03:57:57.501Z,90.67
2023-03-20T04:00:34.190Z,91.42
2023-03-20T04:03:23.876Z,92.50
2023-03-20T04:06:01.560Z,93.96
2023-03-20T04:08:51.978Z,95.39
2023-03-20T04:11:36.127Z,95.44
2023-03-20T04:14:25.050Z,95.53
2023-03-20T04:17:14.522Z,95.53
2023-03-20T04:19:56.165Z,95.39
2023-03-20T04:22:43.564Z,95.06
2023-03-20T04:25:33.195Z,95.30
2023-03-20T04:28:23.748Z,95.06
2023-03-20T04:31:22.069Z,96.20
2023-03-20T04:34:17.662Z,96.50
2023-03-20T04:37:16.982Z,98.15
2023-03-20T04:40:10.145Z,98.39
2023-03-20T04:42:56.214Z,98.74
2023-03-20T04:45:45.157Z,99.55
2023-03-20T04:48:32.550Z,99.89
2023-03-20T04:51:20.009Z,98.97
2023-03-20T04:54:14.892Z,98.72
2023-03-20T04:56:59.231Z,98.91
2023-03-20T04:59:39.914Z,98.73
2023-03-20T05:02:24.812Z,97.82
2023-03-20T05:05:05.539Z,97.36
2023-03-20T05:07:46.824Z,96.89
2023-03-20T05:10:48.645Z,97.25
2023-03-20T05:13:46.185Z,96.99
2023-03-20T05:16:43.801Z,97.55
2023-03-20T05:19:38.859Z,97.10
2023-03-20T05:22:24.869Z,97.50
2023-03-20T05:25:33.525Z,97.92
2023-03-20T05:28:31.345Z,97.69
2023-03-20T05:31:38.353Z,97.72
2023-03-20T05:34:30.693Z,97.36
2023-03-20T05:37:34.445Z,97.26
2023-03-20T05:40:30.323Z,97.15
2023-03-20T05:43:31.193Z,96.90
2023-03-20T05:46:41.344Z,96.89
2023-03-20T05:49:58.160Z,96.61
2023-03-20T05:53:13.168Z,97.12
2023-03-20T05:56:13.547Z,97.17
2023-03-20T05:58:57.397Z,98.65
2023-03-20T06:01:49.973Z,99.11
2023-03-20T06:04:33.068Z,99.60
2023-03-20T06:07:25.312Z,98.87
2023-03-20T06:10:27.973Z,98.06
2023-03-20T06:13:10.789Z,98.17
2023-03-20T06:15:49.690Z,97.76
2023-03-20T06:18:33.596Z,96.64
2023-03-20T06:21:26.325Z,96.26
2023-03-20T06:24:18.675Z,94.70
2023-03-20T06:27:00.306Z,91.71
2023-03-20T06:29:44.115Z,90.56
2023-03-20T06:32:47.462Z,90.43
2023-03-20T06:35:31.372Z,86.60
2023-03-20T06:38:20.456Z,83.85
2023-03-20T06:41:09.844Z,81.04
2023-03-20T06:44:00.863Z,79.37
2023-03-20T06:47:06.955Z,77.67
2023-03-20T06:49:53.726Z,76.30
2023-03-20T06:52:36.836Z,78.02
2023-03-20T06:55:40.809Z,74.47
2023-03-20T06:58:32.940Z,72.12
2023-03-20T07:01:21.898Z,71.50
2023-03-20T07:04:09.344Z,70.99
2023-03-20T07:06:58.014Z,68.77
2023-03-20T07:09:52.581Z,67.49
2023-03-20T07:12:30.988Z,65.96
2023-03-20T07:15:15.631Z,60.42
2023-03-20T07:17:59.194Z,61.43
2023-03-20T07:20:49.505Z,60.72
2023-03-20T07:23:42.949Z,58.68
2023-03-20T07:26:29.241Z,59.23
2023-03-20T07:29:18.372Z,59.81
2023-03-20T07:31:59.642Z,58.70
2023-03-20T07:34:47.650Z,57.76
2023-03-20T07:37:37.567Z,56.10
2023-03-20T07:40:18.941Z,56.50
2023-03-20T07:43:11.560Z,55.78
2023-03-20T07:46:18.320Z,56.27
2023-03-20T07:48:58.981Z,54.50
2023-03-20T07:51:39.846Z,54.54
2023-03-20T07:54:19.525Z,54.58
2023-03-20T07:57:09.277Z,53.08
2023-03-20T07:59:47.048Z,50.42
2023-03-20T08:02:43.285Z,51.73
2023-03-20T08:05:26.853Z,49.29
2023-03-20T08:08:10.278Z,48.90
2023-03-20T08:10:48.675Z,48.09
2023-03-20T08:13:28.758Z,45.58
2023-03-20T08:16:13.321Z,47.09
2023-03-20T08:19:11.673Z,45.89
2023-03-20T08:21:59.712Z,45.49
2023-03-20T08:24:40.980Z,45.84
2023-03-20T08:27:26.783Z,45.89
2023-03-20T08:30:09.041Z,45.77
2023-03-20T08:32:55.588Z,46.40
2023-03-20T08:35:41.494Z,44.66
2023-03-20T08:38:36.275Z,44.76
2023-03-20T08:41:19.963Z,44.55
2023-03-20T08:44:02.985Z,43.52
2023-03-20T08:46:58.719Z,44.79
2023-03-20T08:49:49.195Z,45.66
2023-03-20T08:52:35.549Z,43.60
2023-03-20T08:55:20.971Z,43.05
2023-03-20T08:58:06.847Z,43.64
2023-03-20T09:00:47.077Z,42.56
2023-03-20T09:03:25.628Z,43.86
2023-03-20T09:06:10.665Z,42.99
2023-03-20T09:08:55.429Z,43.43
2023-03-20T09:11:39.343Z,43.30
2023-03-20T09:14:25.770Z,42.69
2023-03-20T09:17:09.509Z,42.91
2023-03-20T09:19:54.405Z,42.52
2023-03-20T09:22:52.939Z,42.03
2023-03-20T09:25:37.211Z,41.91
2023-03-20T09:28:20.976Z,41.39
2023-03-20T09:30:59.072Z,40.63
2023-03-20T09:33:46.692Z,40.49
2023-03-20T09:36:33.652Z,41.48
2023-03-20T09:39:11.146Z,38.73
2023-03-20T09:41:57.869Z,40.26
2023-03-20T09:44:50.598Z,38.06
2023-03-20T09:47:48.810Z,39.21
2023-03-20T09:50:51.056Z,39.00
2023-03-20T09:53:34.499Z,38.30
2023-03-20T09:56:37.531Z,37.82
2023-03-20T09:59:30.144Z,38.23
2023-03-20T10:02:19.779Z,38.07
2023-03-20T10:05:04.514Z,37.47
2023-03-20T10:07:49.292Z,37.41
2023-03-20T10:11:04.008Z,38.44
2023-03-20T10:14:02.551Z,39.11
2023-03-20T10:17:06.769Z,37.62
2023-03-20T10:20:24.009Z,38.72
2023-03-20T10:23:29.480Z,38.21
2023-03-20T10:26:12.493Z,38.54
2023-03-20T10:29:03.030Z,38.75
2023-03-20T10:31:45.984Z,37.32
2023-03-20T10:34:32.414Z,36.70
2023-03-20T10:37:32.717Z,36.12
2023-03-20T10:40:29.052Z,37.32
2023-03-20T10:43:28.130Z,37.00
2023-03-20T10:46:17.122Z,36.86
2023-03-20T10:49:04.495Z,36.74
2023-03-20T10:52:01.861Z,38.21
2023-03-20T10:54:41.621Z,37.83
2023-03-20T10:57:42.261Z,37.55
2023-03-20T11:00:24.945Z,37.20
2023-03-20T11:03:10.982Z,37.64
2023-03-20T11:06:08.253Z,36.85
2023-03-20T11:08:57.205Z,36.70
2023-03-20T11:11:41.278Z,37.35
2023-03-20T11:14:29.569Z,36.33
2023-03-20T11:17:15.362Z,36.13
2023-03-20T11:20:10.809Z,36.48
2023-03-20T11:22:56.151Z,35.95
2023-03-20T11:25:43.844Z,36.28
2023-03-20T11:28:49.830Z,35.97
2023-03-20T11:31:37.497Z,36.38
2023-03-20T11:34:17.815Z,36.09
2023-03-20T11:37:34.561Z,36.56
2023-03-20T11:40:36.299Z,35.97
2023-03-20T11:43:28.623Z,36.05
2023-03-20T11:46:11.351Z,36.54
2023-03-20T11:49:10.558Z,36.78
2023-03-20T11:51:43.544Z,36.59
2023-03-20T11:54:24.739Z,37.00
2023-03-20T11:57:11.284Z,36.50
2023-03-20T11:59:49.196Z,35.98
2023-03-20T12:02:31.414Z,35.85
2023-03-20T12:05:30.503Z,36.02
2023-03-20T12:08:29.884Z,37.15
2023-03-20T12:11:24.652Z,35.73
2023-03-20T12:14:08.345Z,36.34
2023-03-20T12:16:51.016Z,36.84
2023-03-20T12:19:37.572Z,36.35
2023-03-20T12:23:01.948Z,36.61
2023-03-20T12:25:58.174Z,36.23
2023-03-20T12:28:44.873Z,36.05
2023-03-20T12:31:53.541Z,36.68
2023-03-20T12:34:53.312Z,35.39
2023-03-20T12:37:34.562Z,35.51
2023-03-20T12:40:22.568Z,35.53
2023-03-20T12:43:44.640Z,36.55
2023-03-20T12:46:58.993Z,36.11
2023-03-20T12:50:13.359Z,36.69
2023-03-20T12:53:36.510Z,36.69
2023-03-20T12:57:02.557Z,38.07
2023-03-20T12:59:52.412Z,37.60
2023-03-20T13:02:30.322Z,37.27
2023-03-20T13:05:34.000Z,36.47
2023-03-20T13:08:33.851Z,37.21
2023-03-20T13:11:51.536Z,36.78
2023-03-20T13:14:57.560Z,38.15
2023-03-20T13:17:57.124Z,36.86
2023-03-20T13:20:42.270Z,36.74
2023-03-20T13:23:47.232Z,37.24
2023-03-20T13:26:41.920Z,36.14
2023-03-20T13:29:48.048Z,36.84
2023-03-20T13:32:50.886Z,37.30
2023-03-20T13:36:00.494Z,36.78
2023-03-20T13:38:46.153Z,36.32
2023-03-20T13:41:31.659Z,35.78
2023-03-20T13:44:19.736Z,35.90
2023-03-20T13:47:29.640Z,37.03
2023-03-20T13:50:26.528Z,37.14
2023-03-20T13:53:28.918Z,35.97
2023-03-20T13:56:37.463Z,36.55
2023-03-20T14:00:06.524Z,35.42
2023-03-20T14:03:11.444Z,35.53
2023-03-20T14:05:48.147Z,35.57
2023-03-20T14:08:45.942Z,35.51
2023-03-20T14:11:41.544Z,34.80
2023-03-20T14:14:41.718Z,35.67
2023-03-20T14:17:59.694Z,35.78
2023-03-20T14:20:42.007Z,36.15
2023-03-20T14:23:42.325Z,36.77
2023-03-20T14:26:38.498Z,37.10
2023-03-20T14:29:22.316Z,37.41
2023-03-20T14:32:28.318Z,38.53
2023-03-20T14:35:33.377Z,38.49
2023-03-20T14:38:32.618Z,39.58
2023-03-20T14:41:24.828Z,39.56
2023-03-20T14:44:30.564Z,39.74
2023-03-20T14:47:57.945Z,39.58
2023-03-20T14:50:54.998Z,38.85
2023-03-20T14:53:37.575Z,37.74
2023-03-20T14:56:29.320Z,38.16
2023-03-20T14:59:22.849Z,38.39
2023-03-20T15:02:11.251Z,38.52
2023-03-20T15:04:54.513Z,38.84
2023-03-20T15:07:42.545Z,39.69
2023-03-20T15:10:19.691Z,39.80
2023-03-20T15:13:00.428Z,40.18
2023-03-20T15:16:07.113Z,40.68
2023-03-20T15:18:51.038Z,39.92
2023-03-20T15:21:34.163Z,39.83
2023-03-20T15:24:33.056Z,40.06
2023-03-20T15:27:16.712Z,40.11
2023-03-20T15:30:02.600Z,40.63
2023-03-20T15:32:51.707Z,41.08
2023-03-20T15:35:36.377Z,41.18
2023-03-20T15:38:19.587Z,40.78
2023-03-20T15:41:00.808Z,40.33
2023-03-20T15:43:50.026Z,39.40
2023-03-20T15:46:53.538Z,39.48
2023-03-20T15:49:41.533Z,40.21
2023-03-20T15:52:42.353Z,40.70
2023-03-20T15:55:57.662Z,39.98
2023-03-20T15:58:58.637Z,40.09
2023-03-20T16:01:38.578Z,38.87
2023-03-20T16:04:22.650Z,38.65
2023-03-20T16:07:24.960Z,38.87
2023-03-20T16:10:17.458Z,39.17
2023-03-20T16:12:59.126Z,38.69
2023-03-20T16:15:50.980Z,39.13
2023-03-20T16:18:45.022Z,38.91
2023-03-20T16:21:36.262Z,39.74
2023-03-20T16:24:26.903Z,39.06
2023-03-20T16:27:02.389Z,40.13
2023-03-20T16:29:48.544Z,40.67
2023-03-20T16:32:46.351Z,40.61
2023-03-20T16:35:48.590Z,41.47
2023-03-20T16:38:41.528Z,42.69
2023-03-20T16:41:40.560Z,43.87
2023-03-20T16:44:30.243Z,44.84
2023-03-20T16:47:49.492Z,46.57
2023-03-20T16:50:48.317Z,47.79
2023-03-20T16:53:27.498Z,48.49
2023-03-20T16:56:08.522Z,49.18
2023-03-20T16:58:59.349Z,49.98
2023-03-20T17:01:46.403Z,50.76
2023-03-20T17:04:36.413Z,51.40
2023-03-20T17:07:30.800Z,52.34
2023-03-20T17:10:30.504Z,53.77
2023-03-20T17:13:19.477Z,53.72
2023-03-20T17:16:03.262Z,54.10
2023-03-20T17:18:51.195Z,54.59
2023-03-20T17:21:30.574Z,55.70
2023-03-20T17:24:21.852Z,56.05
2023-03-20T17:27:15.583Z,56.91
2023-03-20T17:29:55.835Z,58.64
2023-03-20T17:32:41.188Z,60.27
2023-03-20T17:35:24.617Z,61.27
2023-03-20T17:38:00.160Z,62.89
2023-03-20T17:40:48.684Z,63.77
2023-03-20T17:43:42.968Z,64.54
2023-03-20T17:46:24.386Z,65.98
2023-03-20T17:49:34.970Z,68.16
2023-03-20T17:52:26.841Z,69.44
2023-03-20T17:55:10.432Z,69.79
2023-03-20T17:57:51.194Z,71.69
2023-03-20T18:00:37.711Z,73.01
2023-03-20T18:03:18.241Z,73.28
2023-03-20T18:05:57.047Z,74.04
2023-03-20T18:08:35.472Z,73.63
2023-03-20T18:11:20.428Z,74.75
2023-03-20T18:13:55.678Z,75.83
2023-03-20T18:16:41.322Z,77.04
2023-03-20T18:19:43.928Z,76.60
2023-03-20T18:22:25.655Z,77.42
2023-03-20T18:25:07.011Z,79.26
2023-03-20T18:27:50.270Z,79.48
2023-03-20T18:30:42.320Z,79.79
2023-03-20T18:33:33.330Z,80.00
2023-03-20T18:36:19.054Z,80.96
2023-03-20T18:38:54.341Z,81.31
2023-03-20T18:41:50.882Z,81.74
2023-03-20T18:44:25.947Z,83.68
2023-03-20T18:47:06.866Z,82.94
2023-03-20T18:49:50.053Z,83.57
2023-03-20T18:52:39.529Z,84.64
2023-03-20T18:55:20.654Z,84.15
2023-03-20T18:58:03.941Z,84.44
2023-03-20T19:00:51.469Z,84.42
2023-03-20T19:03:41.685Z,83.86
2023-03-20T19:06:29.967Z,83.29
2023-03-20T19:09:21.262Z,83.98
2023-03-20T19:11:58.594Z,84.29
2023-03-20T19:14:41.398Z,83.56
2023-03-20T19:17:23.850Z,83.90
2023-03-20T19:20:06.174Z,85.19
2023-03-20T19:22:47.337Z,87.88
2023-03-20T19:25:31.943Z,88.17
2023-03-20T19:28:18.119Z,88.60
2023-03-20T19:31:00.092Z,89.31
2023-03-20T19:33:42.903Z,89.90
2023-03-20T19:36:36.394Z,92.15
2023-03-20T19:39:21.691Z,93.79
2023-03-20T19:42:26.148Z,92.17
2023-03-20T19:45:10.281Z,94.21
2023-03-20T19:47:51.446Z,93.88
2023-03-20T19:50:46.633Z,95.99
2023-03-20T19:53:31.454Z,94.04
2023-03-20T19:56:14.734Z,94.94
2023-03-20T19:59:06.836Z,95.17
2023-03-20T20:01:52.518Z,96.15
2023-03-20T20:04:39.003Z,98.19
2023-03-20T20:10:30.570Z,100.00
2023-03-20T20:13:19.292Z,100.00
2023-03-20T20:15:58.278Z,100.00
2023-03-20T20:18:44.305Z,100.00
2023-03-20T20:22:13.396Z,100.00
2023-03-20T20:24:31.863Z,100.00
2023-03-20T20:27:18.821Z,99.76
2023-03-20T20:29:58.326Z,99.90
2023-03-20T20:32:43.634Z,100.00
2023-03-20T20:35:47.739Z,100.00
2023-03-20T20:38:50.948Z,100.00
2023-03-20T20:41:35.567Z,100.00
2023-03-20T20:44:25.718Z,100.00
2023-03-20T20:47:00.670Z,100.00
2023-03-20T20:49:46.969Z,100.00
2023-03-20T20:52:21.779Z,100.00
2023-03-20T20:55:22.173Z,100.00
2023-03-20T20:58:04.052Z,100.00
2023-03-20T21:00:55.141Z,100.00
2023-03-20T21:03:33.748Z,100.00
2023-03-20T21:06:19.045Z,100.00
2023-03-20T21:08:56.482Z,100.00
2023-03-20T21:11:50.575Z,100.00
2023-03-20T21:14:29.496Z,100.00
2023-03-20T21:17:07.399Z,100.00
2023-03-20T21:19:57.576Z,100.00
2023-03-20T21:22:41.278Z,100.00
2023-03-20T21:25:36.372Z,100.00
2023-03-20T21:28:24.887Z,100.00
2023-03-20T21:31:24.502Z,100.00
2023-03-20T21:34:11.857Z,100.00
2023-03-20T21:36:59.626Z,100.00
2023-03-20T21:39:45.558Z,100.00
2023-03-20T21:42:29.554Z,100.00
2023-03-20T21:49:04.126Z,100.00
2023-03-20T21:52:30.546Z,100.00
2023-03-20T21:58:27.484Z,100.00
2023-03-20T22:07:45.003Z,100.00
2023-03-20T22:14:12.630Z,100.00
2023-03-20T22:17:15.606Z,100.00
2023-03-20T22:23:29.336Z,100.00
2023-03-20T22:27:24.762Z,100.00
2023-03-20T22:33:36.076Z,100.00
2023-03-20T22:36:57.543Z,100.00
2023-03-20T22:47:57.776Z,100.00
2023-03-20T22:50:42.454Z,100.00
2023-03-20T22:53:28.369Z,100.00
2023-03-20T22:56:15.744Z,100.00
2023-03-20T22:59:04.784Z,100.00
2023-03-20T23:01:46.959Z,100.00
2023-03-20T23:04:30.326Z,100.00
2023-03-20T23:07:14.703Z,100.00
2023-03-20T23:09:59.139Z,100.00
2023-03-20T23:12:38.977Z,100.00
2023-03-20T23:15:19.336Z,100.00
2023-03-20T23:18:13.246Z,100.00
2023-03-20T23:21:01.707Z,100.00
2023-03-20T23:23:52.763Z,100.00
2023-03-20T23:26:41.766Z,100.00
2023-03-20T23:29:26.689Z,100.00
2023-03-20T23:32:05.310Z,100.00
2023-03-20T23:34:45.882Z,100.00
2023-03-20T23:37:34.510Z,100.00
2023-03-20T23:40:13.661Z,100.00
2023-03-20T23:42:59.535Z,100.00
2023-03-20T23:45:46.584Z,100.00
2023-03-20T23:48:30.865Z,100.00
2023-03-20T23:51:16.811Z,100.00
2023-03-20T23:54:15.546Z,100.00
2023-03-20T23:56:59.387Z,100.00
2023-03-20T23:59:48.515Z,100.00
